Time;durP1;ratioP1;P1;durP2;ratioP2;P2;SDS_P1;SDS_P2;PMS_P1;PMS_P2;Temp;Humidity;BMP_temperature;BMP_pressure;BME280_temperature;BME280_humidity;BME280_pressure;Samples;Min_cycle;Max_cycle;Signal;HPM_P1;HPM_P2
2023/08/01 00:09:21;;;;;;;27.13;20.88;;;14.70;99.90;;;;;;25592742;23;20377;-45
2023/08/01 00:19:23;;;;;;;27.98;23.55;;;14.90;99.90;;;;;;25592106;23;20008;-57
2023/08/01 00:29:25;;;;;;;30.48;23.70;;;15.30;99.90;;;;;;25591882;23;20032;-56
2023/08/01 00:39:26;;;;;;;25.15;21.27;;;15.90;99.90;;;;;;25591128;23;20079;-56
2023/08/01 00:49:28;;;;;;;21.67;18.15;;;16.20;99.90;;;;;;25590717;23;19997;-57
2023/08/01 00:59:30;;;;;;;23.52;17.33;;;16.30;99.90;;;;;;25590717;23;20274;-56
2023/08/01 01:09:32;;;;;;;19.63;16.92;;;16.20;99.90;;;;;;25590494;23;20009;-56
2023/08/01 01:19:34;;;;;;;18.48;15.73;;;16.10;99.90;;;;;;25563522;23;20313;-48
2023/08/01 01:29:37;;;;;;;18.58;16.58;;;16.20;99.90;;;;;;25563108;23;20001;-46
2023/08/01 01:39:39;;;;;;;17.02;15.30;;;16.40;99.90;;;;;;25599339;23;20017;-59
2023/08/01 01:49:40;;;;;;;14.98;13.40;;;16.50;99.90;;;;;;25588678;23;20251;-56
2023/08/01 01:59:42;;;;;;;15.65;13.50;;;16.60;99.90;;;;;;25562200;23;20071;-46
2023/08/01 02:09:44;;;;;;;18.60;15.35;;;16.60;99.90;;;;;;25563131;23;19997;-56
2023/08/01 02:19:46;;;;;;;14.38;12.88;;;16.60;99.90;;;;;;25561430;23;20060;-55
2023/08/01 02:29:50;;;;;;;20.77;17.73;;;16.60;99.90;;;;;;25560855;23;20012;-56
2023/08/01 02:39:52;;;;;;;21.52;16.77;;;16.60;99.90;;;;;;25587162;23;20870;-56
2023/08/01 02:49:54;;;;;;;24.23;20.00;;;16.60;99.90;;;;;;25560897;23;20001;-50
2023/08/01 02:59:56;;;;;;;20.80;18.58;;;16.80;99.90;;;;;;25587234;23;20009;-55
2023/08/01 03:09:57;;;;;;;20.15;17.52;;;16.80;99.90;;;;;;25585462;23;20013;-56
2023/08/01 03:19:59;;;;;;;22.73;20.30;;;16.80;99.90;;;;;;25586707;23;20448;-56
2023/08/01 03:30:02;;;;;;;20.80;16.83;;;16.80;99.90;;;;;;25584829;23;20051;-57
2023/08/01 03:40:05;;;;;;;16.85;15.13;;;16.90;99.90;;;;;;25587993;23;20369;-57
2023/08/01 03:50:07;;;;;;;17.40;15.60;;;16.80;99.90;;;;;;25567306;23;20009;-47
2023/08/01 04:00:18;;;;;;;18.27;16.30;;;16.80;99.90;;;;;;25566996;23;20010;-57
2023/08/01 04:10:20;;;;;;;18.70;15.73;;;16.80;99.90;;;;;;25607498;23;20001;-49
2023/08/01 04:20:22;;;;;;;19.80;16.45;;;16.80;99.90;;;;;;25592217;23;20365;-56
2023/08/01 04:30:23;;;;;;;32.17;19.27;;;16.80;99.90;;;;;;25591917;23;20067;-55
2023/08/01 04:40:25;;;;;;;8.00;5.55;;;16.70;99.90;;;;;;25591573;23;20016;-44
2023/08/01 04:50:27;;;;;;;4.70;1.85;;;16.20;99.90;;;;;;25590566;23;20005;-51
2023/08/01 05:00:29;;;;;;;3.10;2.45;;;15.70;99.90;;;;;;25592453;23;20005;-52
2023/08/01 05:10:31;;;;;;;6.10;2.55;;;15.50;99.90;;;;;;25590291;23;20016;-55
2023/08/01 05:20:33;;;;;;;7.05;6.18;;;15.50;99.90;;;;;;25589857;23;20008;-56
2023/08/01 05:30:35;;;;;;;39.40;17.05;;;15.60;99.90;;;;;;25589742;23;20012;-55
2023/08/01 05:40:37;;;;;;;16.52;14.82;;;15.80;99.90;;;;;;25588858;23;20392;-52
2023/08/01 05:50:39;;;;;;;18.92;14.30;;;16.10;99.90;;;;;;25588570;23;20001;-55
2023/08/01 06:00:41;;;;;;;11.80;10.63;;;16.00;99.90;;;;;;25588687;23;20075;-49
2023/08/01 06:10:43;;;;;;;7.50;6.57;;;16.00;99.90;;;;;;25588201;23;20048;-54
2023/08/01 06:20:44;;;;;;;7.50;6.80;;;15.80;99.90;;;;;;25587923;23;20005;-52
2023/08/01 06:30:46;;;;;;;7.88;7.10;;;15.70;99.90;;;;;;25587551;23;20005;-51
2023/08/01 06:40:48;;;;;;;9.00;7.75;;;15.60;99.90;;;;;;25587459;23;20013;-47
2023/08/01 06:50:50;;;;;;;11.00;9.95;;;15.70;99.90;;;;;;25587225;23;20006;-56
2023/08/01 07:00:52;;;;;;;13.15;11.85;;;16.20;99.90;;;;;;25587181;23;20005;-55
2023/08/01 07:10:54;;;;;;;11.20;10.00;;;16.60;99.90;;;;;;25587180;23;20444;-53
2023/08/01 07:21:01;;;;;;;14.10;11.57;;;16.80;99.90;;;;;;25566860;23;20009;-53
2023/08/01 07:31:07;;;;;;;12.65;9.93;;;17.00;99.90;;;;;;25594077;23;20388;-51
2023/08/01 07:41:12;;;;;;;;;;;17.40;99.90;;;;;;25593133;23;20330;-56
2023/08/01 07:51:13;;;;;;;7.60;6.85;;;18.00;99.90;;;;;;25593285;23;19916;-57
2023/08/01 08:01:15;;;;;;;7.88;7.07;;;18.90;99.90;;;;;;25592897;23;20059;-55
2023/08/01 08:11:17;;;;;;;5.45;4.72;;;18.90;99.90;;;;;;25592716;23;20016;-56
2023/08/01 08:21:19;;;;;;;6.53;4.50;;;20.40;99.90;;;;;;25592390;23;20001;-57
2023/08/01 08:31:20;;;;;;;4.82;2.88;;;21.80;99.90;;;;;;25591855;23;20066;-58
2023/08/01 08:41:26;;;;;;;3.97;3.35;;;23.60;99.90;;;;;;25591548;23;20017;-58
2023/08/01 08:51:29;;;;;;;4.85;3.42;;;22.80;99.90;;;;;;25590839;23;20032;-58
2023/08/01 09:01:32;;;;;;;3.63;3.33;;;22.00;99.90;;;;;;25590670;23;20068;-58
2023/08/01 09:11:50;;;;;;;4.15;3.42;;;21.90;99.90;;;;;;25590311;23;20436;-58
2023/08/01 09:21:53;;;;;;;3.83;2.85;;;22.10;99.90;;;;;;25630726;23;20012;-50
2023/08/01 09:31:55;;;;;;;5.65;3.92;;;22.20;99.90;;;;;;25590157;23;20063;-58
2023/08/01 09:42:01;;;;;;;5.13;4.60;;;21.90;99.90;;;;;;25588881;23;20024;-49
2023/08/01 09:52:03;;;;;;;7.55;6.40;;;23.70;99.90;;;;;;25588543;23;20075;-59
2023/08/01 10:02:12;;;;;;;7.22;4.80;;;24.20;99.90;;;;;;25589004;23;20005;-59
2023/08/01 10:12:17;;;;;;;5.82;5.30;;;25.40;99.90;;;;;;25629419;23;20507;-59
2023/08/01 10:22:20;;;;;;;6.55;5.65;;;24.70;99.90;;;;;;25587953;23;20059;-58
2023/08/01 10:32:32;;;;;;;9.40;8.50;;;24.10;99.90;;;;;;25587354;23;20506;-58
2023/08/01 10:42:39;;;;;;;10.18;7.68;;;24.80;99.90;;;;;;25505393;23;20041;-59
2023/08/01 10:52:41;;;;;;;9.23;8.30;;;24.80;99.90;;;;;;25466093;23;20009;-58
2023/08/01 11:02:51;;;;;;;8.60;7.65;;;24.50;99.90;;;;;;25472155;23;20512;-59
2023/08/01 11:12:54;;;;;;;8.18;6.53;;;25.60;99.90;;;;;;25512612;23;20087;-59
2023/08/01 11:23:00;;;;;;;8.10;4.72;;;26.50;99.90;;;;;;25471523;23;20013;-59
2023/08/01 11:33:23;;;;;;;4.30;3.22;;;26.30;99.90;;;;;;25516009;23;20013;-58
2023/08/01 11:43:25;;;;;;;4.18;3.70;;;26.20;99.90;;;;;;25627240;23;20017;-59
2023/08/01 11:53:28;;;;;;;6.05;4.13;;;26.00;99.90;;;;;;25585291;23;20009;-58
2023/08/01 12:03:30;;;;;;;4.90;4.03;;;24.80;99.90;;;;;;25586914;23;20016;-57
2023/08/01 12:13:31;;;;;;;5.40;4.68;;;24.20;99.90;;;;;;25586938;23;20391;-58
2023/08/01 12:23:35;;;;;;;5.95;4.55;;;25.00;99.90;;;;;;25587260;23;20017;-58
2023/08/01 12:33:37;;;;;;;6.30;4.57;;;24.30;99.90;;;;;;25529012;23;1370528;-58
2023/08/01 12:43:39;;;;;;;5.13;4.40;;;24.00;99.90;;;;;;25592944;23;20001;-48
2023/08/01 12:53:42;;;;;;;5.93;3.85;;;24.20;99.90;;;;;;25592555;23;20032;-57
2023/08/01 13:03:47;;;;;;;5.97;5.35;;;24.00;99.90;;;;;;25633317;23;20005;-58
2023/08/01 13:13:49;;;;;;;6.30;4.95;;;23.60;99.90;;;;;;25591191;23;20503;-58
2023/08/01 13:23:51;;;;;;;8.60;5.45;;;23.10;99.90;;;;;;25591237;23;20001;-46
2023/08/01 13:33:53;;;;;;;8.30;6.25;;;22.70;99.90;;;;;;25590507;23;20565;-58
2023/08/01 13:43:55;;;;;;;9.27;8.23;;;22.80;99.90;;;;;;25589948;23;20036;-58
2023/08/01 13:53:58;;;;;;;7.85;6.95;;;22.90;99.90;;;;;;25590358;23;20009;-58
2023/08/01 14:04:00;;;;;;;8.73;7.55;;;22.40;99.90;;;;;;25589580;23;20001;-50
2023/08/01 14:14:02;;;;;;;11.18;8.85;;;22.20;99.90;;;;;;25589785;23;20012;-58
2023/08/01 14:24:04;;;;;;;10.85;9.00;;;22.70;99.90;;;;;;25589625;23;20009;-51
2023/08/01 14:34:06;;;;;;;10.18;9.13;;;22.20;99.90;;;;;;25589057;23;20063;-58
2023/08/01 14:44:08;;;;;;;17.25;10.85;;;22.40;99.90;;;;;;25589119;23;20433;-58
2023/08/01 14:54:09;;;;;;;14.02;10.32;;;21.70;99.90;;;;;;25588728;23;20005;-58
2023/08/01 15:04:11;;;;;;;13.68;10.88;;;21.40;99.90;;;;;;25588720;23;20037;-58
2023/08/01 15:14:13;;;;;;;11.77;10.50;;;21.20;99.90;;;;;;25588289;23;20085;-58
2023/08/01 15:24:15;;;;;;;14.02;11.52;;;20.40;99.90;;;;;;25588360;23;20005;-58
2023/08/01 15:34:22;;;;;;;13.13;10.43;;;20.30;99.90;;;;;;25587763;23;20013;-50
2023/08/01 15:44:23;;;;;;;14.27;11.38;;;20.20;99.90;;;;;;25636626;23;20036;-57
2023/08/01 15:54:25;;;;;;;11.45;10.25;;;20.10;99.90;;;;;;25595066;23;20384;-58
2023/08/01 16:04:27;;;;;;;12.48;10.50;;;20.10;99.90;;;;;;25594629;23;20001;-58
2023/08/01 16:14:29;;;;;;;14.75;10.82;;;20.00;99.90;;;;;;25594218;23;20005;-50
2023/08/01 16:24:30;;;;;;;13.43;9.55;;;19.90;99.90;;;;;;25592811;23;20008;-57
2023/08/01 16:34:32;;;;;;;13.32;10.15;;;19.70;99.90;;;;;;25566301;23;20013;-57
2023/08/01 16:44:35;;;;;;;17.50;13.73;;;19.60;99.90;;;;;;25593271;23;20005;-49
2023/08/01 16:54:37;;;;;;;15.73;10.82;;;19.50;99.90;;;;;;25592179;23;20009;-57
2023/08/01 17:04:39;;;;;;;12.75;10.75;;;19.00;99.90;;;;;;25213735;23;20014;-58
2023/08/01 17:14:43;;;;;;;15.95;12.30;;;19.20;99.90;;;;;;25213811;23;20010;-58
2023/08/01 17:24:44;;;;;;;14.40;11.82;;;19.00;99.90;;;;;;25213237;23;20178;-58
2023/08/01 17:34:46;;;;;;;14.35;12.32;;;18.70;99.90;;;;;;25512271;23;20021;-46
2023/08/01 17:44:48;;;;;;;14.90;12.68;;;18.40;99.90;;;;;;25590710;23;20013;-57
2023/08/01 17:54:50;;;;;;;17.17;13.90;;;18.10;99.90;;;;;;25564280;23;20012;-56
2023/08/01 18:04:54;;;;;;;16.92;14.23;;;17.50;99.90;;;;;;25589990;23;20005;-57
2023/08/01 18:14:57;;;;;;;17.50;14.70;;;17.00;99.90;;;;;;25589687;23;20028;-57
2023/08/01 18:24:58;;;;;;;19.83;17.35;;;16.60;99.90;;;;;;25589587;23;20009;-47
2023/08/01 18:35:00;;;;;;;18.55;14.73;;;16.20;99.90;;;;;;25589690;23;20016;-56
2023/08/01 18:45:03;;;;;;;19.15;15.70;;;16.20;99.90;;;;;;25589197;23;20001;-57
2023/08/01 18:55:05;;;;;;;14.38;12.43;;;15.90;99.90;;;;;;25587911;23;20008;-57
2023/08/01 19:05:08;;;;;;;16.33;11.98;;;15.40;99.90;;;;;;25588190;23;20005;-57
2023/08/01 19:15:11;;;;;;;19.25;13.55;;;15.10;99.90;;;;;;25592881;23;20380;-56
2023/08/01 19:25:13;;;;;;;19.08;11.38;;;14.80;99.90;;;;;;25595966;23;20013;-47
2023/08/01 19:35:20;;;;;;;15.95;13.00;;;14.70;99.90;;;;;;25595041;23;20020;-45
2023/08/01 19:45:23;;;;;;;17.58;12.77;;;14.90;99.90;;;;;;25636288;23;20012;-56
2023/08/01 19:55:27;;;;;;;20.52;14.50;;;14.90;99.90;;;;;;25594600;23;20009;-55
2023/08/01 20:05:30;;;;;;;17.35;14.32;;;14.80;99.90;;;;;;25595748;23;20432;-49
2023/08/01 20:15:32;;;;;;;20.05;16.90;;;14.70;99.90;;;;;;25593528;23;20017;-55
2023/08/01 20:25:36;;;;;;;21.48;18.38;;;14.60;99.90;;;;;;25593743;23;20005;-56
2023/08/01 20:35:39;;;;;;;19.92;15.40;;;14.50;99.90;;;;;;25592347;23;20376;-56
2023/08/01 20:45:43;;;;;;;16.40;13.52;;;14.30;99.90;;;;;;25592321;23;20005;-56
2023/08/01 20:55:46;;;;;;;21.13;17.02;;;14.00;99.90;;;;;;25592502;23;20012;-56
2023/08/01 21:05:48;;;;;;;22.80;17.83;;;14.00;99.90;;;;;;25591834;23;20001;-56
2023/08/01 21:15:51;;;;;;;26.92;21.88;;;14.10;99.90;;;;;;25591673;23;20001;-57
2023/08/01 21:25:53;;;;;;;24.15;16.23;;;14.10;99.90;;;;;;25591400;23;20005;-56
2023/08/01 21:35:56;;;;;;;21.10;14.95;;;13.90;99.90;;;;;;25591153;23;20381;-56
2023/08/01 21:46:01;;;;;;;25.65;20.45;;;13.90;99.90;;;;;;25590486;23;20028;-57
2023/08/01 21:56:02;;;;;;;27.40;21.50;;;13.80;99.90;;;;;;25590098;23;20514;-56
2023/08/01 22:06:05;;;;;;;32.60;25.17;;;13.90;99.90;;;;;;25590400;23;20028;-55
2023/08/01 22:16:07;;;;;;;38.92;26.77;;;14.10;99.90;;;;;;25563651;23;20095;-56
2023/08/01 22:26:09;;;;;;;31.30;23.95;;;14.20;99.90;;;;;;25589876;23;20001;-55
2023/08/01 22:36:12;;;;;;;26.83;20.92;;;14.30;99.90;;;;;;25588954;23;20016;-56
2023/08/01 22:46:14;;;;;;;23.15;18.55;;;14.40;99.90;;;;;;25591601;23;20009;-55
2023/08/01 22:56:19;;;;;;;25.30;19.20;;;14.50;99.90;;;;;;25597723;23;20009;-55
2023/08/01 23:06:22;;;;;;;28.75;20.98;;;14.40;99.90;;;;;;25597075;23;20373;-56
2023/08/01 23:16:24;;;;;;;25.20;19.33;;;14.30;99.90;;;;;;25569627;23;20040;-55
2023/08/01 23:26:26;;;;;;;26.13;21.75;;;14.20;99.90;;;;;;25596806;23;20005;-55
2023/08/01 23:36:28;;;;;;;26.67;21.40;;;14.00;99.90;;;;;;25595616;23;20013;-56
2023/08/01 23:46:30;;;;;;;31.23;24.02;;;13.90;99.90;;;;;;25595504;23;20001;-55
2023/08/01 23:56:31;;;;;;;24.05;17.52;;;14.00;99.90;;;;;;25568530;23;20020;-55
